Time;durP1;ratioP1;P1;durP2;ratioP2;P2;SDS_P1;SDS_P2;PMS_P1;PMS_P2;Temp;Humidity;BMP_temperature;BMP_pressure;BME280_temperature;BME280_humidity;BME280_pressure;Samples;Min_cycle;Max_cycle;Signal;HPM_P1;HPM_P2
2022/03/20 00:00:17;;;;;;;41.75;13.02;;;;;;;;;;4989628;28;20444;-61
2022/03/20 00:02:43;;;;;;;36.33;13.32;;;;;;;;;;4989398;28;20029;-61
2022/03/20 00:05:08;;;;;;;35.55;14.10;;;;;;;;;;4988442;28;20343;-61
2022/03/20 00:07:34;;;;;;;35.45;13.90;;;;;;;;;;4990972;28;20390;-60
2022/03/20 00:10:00;;;;;;;37.85;13.93;;;;;;;;;;4989081;28;20436;-61
2022/03/20 00:12:26;;;;;;;38.80;13.10;;;;;;;;;;4989786;28;20414;-63
2022/03/20 00:14:51;;;;;;;36.78;13.32;;;;;;;;;;4990932;28;20082;-61
2022/03/20 00:17:17;;;;;;;44.60;13.48;;;;;;;;;;4971480;28;20440;-61
2022/03/20 00:19:44;;;;;;;35.10;13.68;;;;;;;;;;4989775;28;20360;-60
2022/03/20 00:22:11;;;;;;;35.65;12.45;;;;;;;;;;4989115;28;20503;-61
2022/03/20 00:24:40;;;;;;;40.03;13.13;;;;;;;;;;4990899;28;20033;-61
2022/03/20 00:27:10;;;;;;;38.45;14.25;;;;;;;;;;4989038;28;20392;-61
2022/03/20 00:29:36;;;;;;;40.33;12.90;;;;;;;;;;4989364;28;20115;-61
2022/03/20 00:32:01;;;;;;;36.05;13.70;;;;;;;;;;4989807;28;20539;-62
2022/03/20 00:34:27;;;;;;;35.10;13.63;;;;;;;;;;4988793;28;20068;-61
2022/03/20 00:36:52;;;;;;;38.92;13.15;;;;;;;;;;4988800;28;20344;-61
2022/03/20 00:39:17;;;;;;;40.17;14.73;;;;;;;;;;4989546;28;20120;-61
2022/03/20 00:41:43;;;;;;;38.13;13.82;;;;;;;;;;4990423;28;20037;-61
2022/03/20 00:44:08;;;;;;;31.90;14.35;;;;;;;;;;4989165;28;20111;-61
2022/03/20 00:46:33;;;;;;;31.45;12.57;;;;;;;;;;4989473;28;20443;-61
2022/03/20 00:48:59;;;;;;;31.98;14.15;;;;;;;;;;4989056;28;20473;-60
2022/03/20 00:51:24;;;;;;;32.85;12.65;;;;;;;;;;4989689;28;20424;-61
2022/03/20 00:53:49;;;;;;;38.53;13.18;;;;;;;;;;4989637;28;20360;-61
2022/03/20 00:56:15;;;;;;;29.55;12.43;;;;;;;;;;4988494;28;20116;-62
2022/03/20 00:58:41;;;;;;;50.42;13.85;;;;;;;;;;4989040;28;20335;-61
2022/03/20 01:01:10;;;;;;;36.67;13.25;;;;;;;;;;4982318;28;20395;-61
2022/03/20 01:03:35;;;;;;;35.03;13.45;;;;;;;;;;4972524;28;20332;-62
2022/03/20 01:06:01;;;;;;;26.98;12.05;;;;;;;;;;4969749;28;20029;-61
2022/03/20 01:08:26;;;;;;;36.65;12.43;;;;;;;;;;4969107;28;20347;-61
2022/03/20 01:10:51;;;;;;;30.77;13.50;;;;;;;;;;4969076;28;20463;-62
2022/03/20 01:13:17;;;;;;;35.75;13.13;;;;;;;;;;4969974;28;20544;-61
2022/03/20 01:15:42;;;;;;;31.45;12.75;;;;;;;;;;4968813;28;20340;-61
2022/03/20 01:18:08;;;;;;;28.35;12.77;;;;;;;;;;4973717;28;20149;-61
2022/03/20 01:20:34;;;;;;;35.25;13.55;;;;;;;;;;4973870;28;20427;-61
2022/03/20 01:22:59;;;;;;;31.63;11.98;;;;;;;;;;4973128;28;20347;-61
2022/03/20 01:25:25;;;;;;;33.42;13.20;;;;;;;;;;4972751;28;20452;-61
2022/03/20 01:27:50;;;;;;;30.15;13.02;;;;;;;;;;4972470;28;20468;-61
2022/03/20 01:30:15;;;;;;;32.05;12.23;;;;;;;;;;4972466;28;20452;-61
2022/03/20 01:32:41;;;;;;;31.35;12.45;;;;;;;;;;4972773;28;20124;-61
2022/03/20 01:35:09;;;;;;;28.27;12.48;;;;;;;;;;4971980;28;20371;-62
2022/03/20 01:37:35;;;;;;;32.70;13.10;;;;;;;;;;4972910;28;20412;-61
2022/03/20 01:40:00;;;;;;;30.17;12.48;;;;;;;;;;4973008;28;20292;-62
2022/03/20 01:42:25;;;;;;;31.30;13.18;;;;;;;;;;4972433;28;20415;-61
2022/03/20 01:44:52;;;;;;;26.75;10.73;;;;;;;;;;4974560;28;20318;-61
2022/03/20 01:47:17;;;;;;;28.60;11.23;;;;;;;;;;4972718;28;20448;-61
2022/03/20 01:49:42;;;;;;;31.15;11.93;;;;;;;;;;4954875;28;20438;-61
2022/03/20 01:52:10;;;;;;;27.70;12.65;;;;;;;;;;4972152;28;20421;-61
2022/03/20 01:54:40;;;;;;;34.22;12.63;;;;;;;;;;4972583;28;20053;-61
2022/03/20 01:57:07;;;;;;;26.20;10.77;;;;;;;;;;4972309;28;20429;-61
2022/03/20 01:59:33;;;;;;;28.63;11.43;;;;;;;;;;4971892;28;20376;-61
2022/03/20 02:01:58;;;;;;;34.78;12.70;;;;;;;;;;4971963;28;20368;-61
2022/03/20 02:04:23;;;;;;;29.33;13.35;;;;;;;;;;4972013;28;20452;-62
2022/03/20 02:06:49;;;;;;;25.83;12.07;;;;;;;;;;4973344;28;20440;-61
2022/03/20 02:09:16;;;;;;;24.65;10.88;;;;;;;;;;4971988;28;20437;-61
2022/03/20 02:11:42;;;;;;;29.02;11.90;;;;;;;;;;4972053;28;20077;-62
2022/03/20 02:14:08;;;;;;;28.95;10.98;;;;;;;;;;4954268;28;20048;-61
2022/03/20 02:16:33;;;;;;;28.70;11.68;;;;;;;;;;4954433;28;20049;-61
2022/03/20 02:18:58;;;;;;;27.13;11.43;;;;;;;;;;4971872;28;20359;-61
2022/03/20 02:21:39;;;;;;;32.20;11.60;;;;;;;;;;4971792;28;20459;-61
2022/03/20 02:24:25;;;;;;;21.83;10.90;;;;;;;;;;4972002;28;20099;-61
2022/03/20 02:26:50;;;;;;;28.77;10.30;;;;;;;;;;4972852;28;20053;-61
2022/03/20 02:29:15;;;;;;;27.35;11.10;;;;;;;;;;4970806;28;20417;-62
2022/03/20 02:31:42;;;;;;;22.90;9.85;;;;;;;;;;4971329;28;20055;-62
2022/03/20 02:34:07;;;;;;;22.60;9.80;;;;;;;;;;4971333;28;20449;-61
2022/03/20 02:36:35;;;;;;;23.20;10.93;;;;;;;;;;4971815;28;20457;-61
2022/03/20 02:39:01;;;;;;;23.67;9.70;;;;;;;;;;4971605;28;20421;-61
2022/03/20 02:41:27;;;;;;;31.02;11.70;;;;;;;;;;4971380;28;20447;-62
2022/03/20 02:43:52;;;;;;;24.63;10.27;;;;;;;;;;4972017;28;20318;-62
2022/03/20 02:46:18;;;;;;;23.65;11.07;;;;;;;;;;4971096;28;20427;-61
2022/03/20 02:48:45;;;;;;;23.70;11.27;;;;;;;;;;4971873;28;20418;-62
2022/03/20 02:51:11;;;;;;;28.15;11.23;;;;;;;;;;4970869;28;20056;-61
2022/03/20 02:53:37;;;;;;;24.40;10.60;;;;;;;;;;4774794;28;5001960;-61
2022/03/20 02:56:03;;;;;;;26.50;11.32;;;;;;;;;;4951763;28;20096;-61
2022/03/20 02:58:28;;;;;;;25.83;9.90;;;;;;;;;;4951658;28;20104;-62
2022/03/20 03:00:55;;;;;;;20.77;9.50;;;;;;;;;;4952618;28;20372;-62
2022/03/20 03:03:21;;;;;;;26.00;10.75;;;;;;;;;;4951660;28;20377;-61
2022/03/20 03:05:47;;;;;;;24.58;9.32;;;;;;;;;;4951299;28;20393;-61
2022/03/20 03:10:57;;;;;;;24.75;10.35;;;;;;;;;;4951570;28;20369;-62
2022/03/20 03:13:24;;;;;;;22.02;10.10;;;;;;;;;;4951149;28;20026;-62
2022/03/20 03:15:55;;;;;;;24.33;10.77;;;;;;;;;;4951670;28;20376;-61
2022/03/20 03:18:21;;;;;;;19.33;9.43;;;;;;;;;;4951007;28;20393;-61
2022/03/20 03:20:47;;;;;;;24.60;10.00;;;;;;;;;;4952829;28;20434;-62
2022/03/20 03:23:13;;;;;;;27.13;10.07;;;;;;;;;;4951817;28;20033;-62
2022/03/20 03:25:39;;;;;;;26.25;10.65;;;;;;;;;;4951004;28;20410;-62
2022/03/20 03:28:05;;;;;;;28.63;10.98;;;;;;;;;;4952087;28;20527;-62
2022/03/20 03:30:30;;;;;;;21.40;10.07;;;;;;;;;;4950855;28;20504;-61
2022/03/20 03:32:56;;;;;;;20.35;10.27;;;;;;;;;;4933371;28;20464;-62
2022/03/20 03:38:05;;;;;;;26.70;10.35;;;;;;;;;;4950756;28;20529;-61
2022/03/20 03:40:31;;;;;;;20.42;9.80;;;;;;;;;;4950389;28;20410;-61
2022/03/20 03:42:58;;;;;;;20.48;10.05;;;;;;;;;;4950571;28;20069;-62
2022/03/20 03:45:24;;;;;;;24.83;10.07;;;;;;;;;;4950190;28;20025;-62
2022/03/20 03:47:50;;;;;;;24.23;10.00;;;;;;;;;;4950920;28;20056;-61
2022/03/20 03:50:16;;;;;;;20.75;10.05;;;;;;;;;;4951796;28;20344;-62
2022/03/20 03:52:41;;;;;;;19.85;9.23;;;;;;;;;;4950353;28;20030;-61
2022/03/20 03:55:07;;;;;;;21.65;9.82;;;;;;;;;;4950424;28;20427;-61
2022/03/20 03:57:33;;;;;;;19.15;9.18;;;;;;;;;;4950478;28;20396;-61
2022/03/20 03:59:58;;;;;;;21.27;10.18;;;;;;;;;;4950299;28;20100;-61
2022/03/20 04:02:24;;;;;;;21.52;10.18;;;;;;;;;;4950674;28;20112;-62
2022/03/20 04:04:49;;;;;;;17.65;8.82;;;;;;;;;;4950144;28;20417;-63
2022/03/20 04:07:18;;;;;;;21.02;9.35;;;;;;;;;;4950612;28;20410;-61
2022/03/20 04:09:47;;;;;;;21.75;9.85;;;;;;;;;;4950064;28;20544;-61
2022/03/20 04:12:13;;;;;;;23.17;10.57;;;;;;;;;;4950131;28;20298;-62
2022/03/20 04:14:42;;;;;;;22.50;9.25;;;;;;;;;;4950670;28;20503;-62
2022/03/20 04:17:07;;;;;;;21.13;9.20;;;;;;;;;;4950203;28;20345;-61
2022/03/20 04:19:32;;;;;;;22.00;8.70;;;;;;;;;;4950379;28;20313;-62
2022/03/20 04:21:59;;;;;;;22.90;9.10;;;;;;;;;;4950582;28;20104;-61
2022/03/20 04:24:24;;;;;;;20.65;9.30;;;;;;;;;;4949708;28;20105;-62
2022/03/20 04:26:50;;;;;;;18.90;9.50;;;;;;;;;;4952015;28;20044;-62
2022/03/20 04:29:15;;;;;;;21.05;10.45;;;;;;;;;;4950092;28;20029;-62
2022/03/20 04:31:41;;;;;;;23.58;9.68;;;;;;;;;;4950178;28;20117;-61
2022/03/20 04:34:06;;;;;;;17.67;9.65;;;;;;;;;;4949991;28;20358;-62
2022/03/20 04:36:32;;;;;;;20.75;9.65;;;;;;;;;;4949575;28;20591;-62
2022/03/20 04:39:00;;;;;;;24.60;11.00;;;;;;;;;;4949980;28;20514;-61
2022/03/20 04:41:26;;;;;;;19.57;9.90;;;;;;;;;;4949989;28;20400;-61
2022/03/20 04:43:52;;;;;;;20.92;9.23;;;;;;;;;;4949417;28;20352;-61
2022/03/20 04:46:19;;;;;;;21.13;10.13;;;;;;;;;;4950767;28;20378;-62
2022/03/20 04:59:40;;;;;;;18.38;8.80;;;;;;;;;;4950427;28;20446;-62
2022/03/20 05:02:05;;;;;;;18.02;9.27;;;;;;;;;;4951233;28;20433;-61
2022/03/20 05:04:31;;;;;;;23.27;10.48;;;;;;;;;;4950004;28;20033;-62
2022/03/20 05:06:56;;;;;;;22.02;9.65;;;;;;;;;;4950211;28;20321;-61
2022/03/20 05:14:50;;;;;;;23.38;9.48;;;;;;;;;;4950055;28;20061;-61
2022/03/20 05:17:15;;;;;;;18.92;10.02;;;;;;;;;;4949677;28;20418;-62
2022/03/20 05:19:41;;;;;;;18.90;9.23;;;;;;;;;;4949598;28;20442;-62
2022/03/20 05:22:10;;;;;;;20.13;9.65;;;;;;;;;;4949118;28;20492;-61
2022/03/20 05:24:37;;;;;;;23.65;10.07;;;;;;;;;;4949588;28;20092;-62
2022/03/20 05:27:03;;;;;;;25.13;10.15;;;;;;;;;;4949872;28;20395;-61
2022/03/20 05:29:28;;;;;;;19.42;9.30;;;;;;;;;;4949602;28;20408;-61
2022/03/20 05:31:55;;;;;;;19.92;9.63;;;;;;;;;;4948991;28;20413;-61
2022/03/20 05:34:20;;;;;;;18.92;8.93;;;;;;;;;;4950452;28;20432;-62
2022/03/20 05:36:46;;;;;;;17.95;9.65;;;;;;;;;;4949057;28;20342;-62
2022/03/20 05:39:12;;;;;;;21.20;9.52;;;;;;;;;;4949955;28;20425;-61
2022/03/20 05:41:46;;;;;;;18.45;8.32;;;;;;;;;;4949305;28;20532;-61
2022/03/20 05:44:33;;;;;;;20.77;10.52;;;;;;;;;;4951055;28;20433;-62
2022/03/20 05:47:00;;;;;;;17.88;9.45;;;;;;;;;;4949969;28;20404;-62
2022/03/20 05:49:25;;;;;;;20.35;9.48;;;;;;;;;;4948769;28;20345;-61
2022/03/20 05:51:51;;;;;;;21.95;9.30;;;;;;;;;;4949522;28;20303;-61
2022/03/20 05:54:17;;;;;;;20.55;9.18;;;;;;;;;;4949125;28;20442;-61
2022/03/20 05:59:27;;;;;;;20.65;8.80;;;;;;;;;;4949879;28;20507;-62
2022/03/20 06:01:52;;;;;;;18.38;9.80;;;;;;;;;;4948528;28;20437;-62
2022/03/20 06:04:18;;;;;;;22.40;9.82;;;;;;;;;;4951140;28;20419;-61
2022/03/20 06:06:44;;;;;;;20.25;9.30;;;;;;;;;;4950269;28;20453;-62
2022/03/20 06:09:10;;;;;;;18.73;9.88;;;;;;;;;;4952091;28;20099;-61
2022/03/20 06:11:35;;;;;;;23.75;9.48;;;;;;;;;;4953154;28;20410;-62
2022/03/20 06:14:02;;;;;;;20.00;10.45;;;;;;;;;;4952330;28;20485;-61
2022/03/20 06:16:28;;;;;;;22.42;10.65;;;;;;;;;;4952107;28;20384;-62
2022/03/20 06:18:57;;;;;;;21.73;10.23;;;;;;;;;;4952785;28;20413;-62
2022/03/20 06:21:23;;;;;;;21.20;8.88;;;;;;;;;;4952781;28;20502;-62
2022/03/20 06:23:49;;;;;;;21.30;9.90;;;;;;;;;;4952180;28;20361;-66
2022/03/20 06:26:16;;;;;;;17.77;8.93;;;;;;;;;;4952112;28;20441;-62
2022/03/20 06:28:42;;;;;;;26.48;10.63;;;;;;;;;;4952032;28;20048;-61
2022/03/20 06:31:12;;;;;;;19.58;9.30;;;;;;;;;;4952406;28;20026;-61
2022/03/20 06:33:37;;;;;;;19.77;9.73;;;;;;;;;;4952352;28;20321;-62
2022/03/20 06:36:03;;;;;;;17.58;9.95;;;;;;;;;;4933932;28;20372;-62
2022/03/20 06:38:30;;;;;;;19.98;10.73;;;;;;;;;;4952178;28;20052;-62
2022/03/20 06:40:56;;;;;;;21.30;10.65;;;;;;;;;;4951509;28;20060;-62
2022/03/20 06:43:21;;;;;;;17.40;9.57;;;;;;;;;;4951644;28;20433;-62
2022/03/20 06:45:46;;;;;;;18.25;9.55;;;;;;;;;;4952358;28;20029;-62
2022/03/20 06:48:12;;;;;;;23.25;10.80;;;;;;;;;;4952421;28;20049;-61
2022/03/20 06:50:37;;;;;;;19.48;9.98;;;;;;;;;;4952061;28;20453;-62
2022/03/20 06:53:04;;;;;;;24.70;9.88;;;;;;;;;;4951874;28;20437;-62
2022/03/20 06:55:30;;;;;;;22.77;11.27;;;;;;;;;;4953403;28;20325;-62
2022/03/20 06:57:57;;;;;;;22.05;9.77;;;;;;;;;;4951878;28;20479;-62
2022/03/20 07:00:23;;;;;;;20.63;9.60;;;;;;;;;;4952047;28;20440;-62
2022/03/20 07:02:48;;;;;;;21.95;10.10;;;;;;;;;;4952458;28;20425;-62
2022/03/20 07:05:14;;;;;;;25.15;9.45;;;;;;;;;;4951743;28;20349;-62
2022/03/20 07:07:40;;;;;;;20.80;10.27;;;;;;;;;;4951473;28;20386;-62
2022/03/20 07:10:06;;;;;;;18.20;9.45;;;;;;;;;;4951739;28;20425;-62
2022/03/20 07:12:31;;;;;;;19.33;9.45;;;;;;;;;;4951097;28;20104;-62
2022/03/20 07:14:57;;;;;;;19.88;10.70;;;;;;;;;;4951467;28;20101;-62
2022/03/20 07:17:24;;;;;;;21.00;9.40;;;;;;;;;;4951306;28;20136;-63
2022/03/20 07:19:50;;;;;;;21.17;10.55;;;;;;;;;;4951345;28;20410;-62
2022/03/20 07:22:16;;;;;;;20.13;9.13;;;;;;;;;;4952242;28;20373;-62
2022/03/20 07:24:43;;;;;;;22.33;10.13;;;;;;;;;;4951333;28;20520;-62
2022/03/20 07:29:54;;;;;;;18.38;9.32;;;;;;;;;;4951772;28;20552;-62
2022/03/20 07:32:19;;;;;;;23.08;9.85;;;;;;;;;;4950983;28;20325;-62
2022/03/20 07:34:45;;;;;;;20.38;9.30;;;;;;;;;;4951504;28;20564;-62
2022/03/20 07:37:15;;;;;;;19.50;9.20;;;;;;;;;;4952594;28;20433;-62
2022/03/20 07:39:42;;;;;;;17.98;8.63;;;;;;;;;;4951828;28;20049;-62
2022/03/20 07:42:08;;;;;;;18.95;8.95;;;;;;;;;;4933305;28;20369;-62
2022/03/20 07:44:34;;;;;;;18.80;9.60;;;;;;;;;;4950255;28;20342;-62
2022/03/20 07:46:59;;;;;;;24.50;10.07;;;;;;;;;;4933061;28;20345;-62
2022/03/20 07:49:26;;;;;;;18.73;9.43;;;;;;;;;;4950630;28;20037;-62
2022/03/20 07:51:53;;;;;;;15.18;8.52;;;;;;;;;;4950492;28;20030;-62
2022/03/20 07:54:18;;;;;;;26.73;10.73;;;;;;;;;;4951171;28;20350;-62
2022/03/20 07:56:45;;;;;;;24.38;10.18;;;;;;;;;;4950816;28;20030;-63
2022/03/20 07:59:11;;;;;;;20.90;10.68;;;;;;;;;;4950156;28;20357;-62
2022/03/20 08:01:37;;;;;;;27.02;11.43;;;;;;;;;;4933370;28;20062;-62
2022/03/20 08:04:03;;;;;;;25.75;11.50;;;;;;;;;;4950316;28;20567;-62
2022/03/20 08:06:29;;;;;;;26.95;11.75;;;;;;;;;;4949997;28;20176;-62
2022/03/20 08:08:57;;;;;;;28.13;11.55;;;;;;;;;;4950658;28;20053;-62
2022/03/20 08:11:22;;;;;;;30.60;12.30;;;;;;;;;;4950869;28;20500;-62
2022/03/20 08:13:48;;;;;;;26.13;12.52;;;;;;;;;;4950310;28;20393;-62
2022/03/20 08:16:15;;;;;;;32.10;13.15;;;;;;;;;;4949784;28;20522;-62
2022/03/20 08:18:43;;;;;;;34.22;12.63;;;;;;;;;;4950086;28;20460;-62
2022/03/20 08:21:09;;;;;;;28.70;13.40;;;;;;;;;;4949861;28;20026;-63
2022/03/20 08:23:36;;;;;;;27.83;11.85;;;;;;;;;;4949710;28;20417;-62
2022/03/20 08:26:01;;;;;;;33.67;12.43;;;;;;;;;;4949568;28;20478;-63
2022/03/20 08:28:26;;;;;;;34.90;12.70;;;;;;;;;;4950180;28;20511;-63
2022/03/20 08:30:52;;;;;;;43.42;13.50;;;;;;;;;;4949942;28;20452;-62
2022/03/20 08:33:17;;;;;;;32.63;12.35;;;;;;;;;;4949517;28;20369;-63
2022/03/20 08:35:44;;;;;;;30.40;12.88;;;;;;;;;;4949606;28;20548;-63
2022/03/20 08:38:09;;;;;;;34.35;13.23;;;;;;;;;;4949551;28;20464;-62
2022/03/20 08:40:35;;;;;;;32.50;13.27;;;;;;;;;;4951220;28;20437;-62
2022/03/20 08:43:04;;;;;;;31.25;13.18;;;;;;;;;;4949979;28;20386;-62
2022/03/20 08:45:31;;;;;;;;;;;;;;;;;;4950749;28;20030;-62
2022/03/20 08:47:57;;;;;;;33.72;12.32;;;;;;;;;;4949678;28;20284;-66
2022/03/20 08:50:23;;;;;;;35.83;13.23;;;;;;;;;;4949950;28;20331;-63
2022/03/20 08:52:48;;;;;;;36.42;12.68;;;;;;;;;;4950919;28;20320;-63
2022/03/20 08:55:14;;;;;;;31.55;12.93;;;;;;;;;;4949716;28;20545;-62
2022/03/20 08:57:42;;;;;;;30.70;10.75;;;;;;;;;;4949775;28;20445;-62
2022/03/20 09:00:13;;;;;;;30.55;12.05;;;;;;;;;;4949732;28;20441;-63
2022/03/20 09:02:38;;;;;;;28.42;10.82;;;;;;;;;;4949924;28;20187;-63
2022/03/20 09:05:05;;;;;;;31.05;11.63;;;;;;;;;;4951036;28;20109;-65
2022/03/20 09:07:30;;;;;;;31.70;12.10;;;;;;;;;;4951019;28;20373;-63
2022/03/20 09:09:56;;;;;;;30.33;13.48;;;;;;;;;;4949215;28;20409;-64
2022/03/20 09:12:22;;;;;;;35.42;12.70;;;;;;;;;;4949311;28;20477;-62
2022/03/20 09:14:48;;;;;;;29.45;11.38;;;;;;;;;;4949206;28;20506;-63
2022/03/20 09:19:57;;;;;;;35.53;13.15;;;;;;;;;;4949993;28;20432;-62
2022/03/20 09:22:25;;;;;;;27.95;10.98;;;;;;;;;;4949222;28;20480;-63
2022/03/20 09:24:51;;;;;;;29.27;11.10;;;;;;;;;;4949845;28;20349;-63
2022/03/20 09:27:16;;;;;;;32.83;12.32;;;;;;;;;;4949171;28;20345;-63
2022/03/20 09:29:41;;;;;;;34.03;11.75;;;;;;;;;;4949128;28;20382;-62
2022/03/20 09:32:07;;;;;;;32.75;10.82;;;;;;;;;;4949241;28;20329;-62
2022/03/20 09:34:33;;;;;;;34.58;11.65;;;;;;;;;;4949128;28;20112;-62
2022/03/20 09:36:59;;;;;;;27.75;10.95;;;;;;;;;;4949171;28;20049;-62
2022/03/20 09:39:26;;;;;;;27.25;10.90;;;;;;;;;;4952991;28;20523;-62
2022/03/20 09:41:54;;;;;;;29.80;10.30;;;;;;;;;;4953526;28;20348;-62
2022/03/20 09:44:22;;;;;;;32.25;11.35;;;;;;;;;;4953812;28;20319;-62
2022/03/20 09:46:48;;;;;;;32.42;11.52;;;;;;;;;;4953621;28;20030;-62
2022/03/20 09:49:16;;;;;;;29.75;12.18;;;;;;;;;;4935445;28;20448;-63
2022/03/20 09:51:42;;;;;;;28.35;11.20;;;;;;;;;;4952701;28;20326;-63
2022/03/20 09:54:08;;;;;;;39.00;12.95;;;;;;;;;;4952950;28;20508;-62
2022/03/20 09:56:34;;;;;;;30.90;11.40;;;;;;;;;;4952398;28;20491;-62
2022/03/20 09:58:59;;;;;;;35.63;11.10;;;;;;;;;;4952698;28;20369;-63
2022/03/20 10:01:25;;;;;;;26.17;11.60;;;;;;;;;;4952858;28;20456;-63
2022/03/20 10:04:09;;;;;;;33.75;12.07;;;;;;;;;;4952582;28;20361;-62
2022/03/20 10:06:36;;;;;;;32.08;11.93;;;;;;;;;;4953347;28;20445;-62
2022/03/20 10:09:04;;;;;;;28.90;11.60;;;;;;;;;;4952515;28;20365;-62
2022/03/20 10:11:29;;;;;;;29.95;11.80;;;;;;;;;;4952272;28;20412;-62
2022/03/20 10:14:12;;;;;;;37.63;12.27;;;;;;;;;;4952278;28;20026;-62
2022/03/20 10:16:43;;;;;;;31.65;11.13;;;;;;;;;;4952052;28;20325;-62
2022/03/20 10:19:23;;;;;;;30.65;12.50;;;;;;;;;;4952383;28;20426;-62
2022/03/20 10:21:57;;;;;;;35.53;13.25;;;;;;;;;;4951955;28;20367;-63
2022/03/20 10:24:25;;;;;;;31.05;11.50;;;;;;;;;;4954264;28;20341;-62
2022/03/20 10:27:02;;;;;;;33.15;11.82;;;;;;;;;;4951973;28;20492;-63
2022/03/20 10:29:30;;;;;;;30.77;11.20;;;;;;;;;;4935107;28;20469;-62
2022/03/20 10:31:59;;;;;;;28.10;10.15;;;;;;;;;;4952390;28;20299;-62
2022/03/20 10:34:24;;;;;;;26.85;10.45;;;;;;;;;;4951669;28;20365;-62
2022/03/20 10:36:50;;;;;;;27.95;10.48;;;;;;;;;;4951860;28;20081;-63
2022/03/20 10:39:26;;;;;;;33.03;11.35;;;;;;;;;;4951982;28;20484;-63
2022/03/20 10:41:53;;;;;;;25.85;10.75;;;;;;;;;;4953449;28;20229;-62
2022/03/20 10:44:22;;;;;;;29.23;10.32;;;;;;;;;;4951860;28;20551;-63
2022/03/20 10:47:09;;;;;;;28.80;10.30;;;;;;;;;;4934097;28;20483;-62
2022/03/20 10:49:35;;;;;;;28.15;9.48;;;;;;;;;;4950908;28;20338;-63
2022/03/20 10:52:06;;;;;;;26.35;9.45;;;;;;;;;;4952722;28;20377;-62
2022/03/20 10:54:42;;;;;;;23.00;8.82;;;;;;;;;;4951659;28;20450;-63
2022/03/20 10:57:09;;;;;;;21.80;10.00;;;;;;;;;;4934018;28;20503;-62
2022/03/20 10:59:34;;;;;;;25.88;9.95;;;;;;;;;;4951852;28;20453;-62
2022/03/20 11:02:01;;;;;;;24.02;7.57;;;;;;;;;;4951588;28;20452;-63
2022/03/20 11:04:28;;;;;;;20.67;8.80;;;;;;;;;;4934034;28;20453;-63
2022/03/20 11:06:54;;;;;;;18.40;8.75;;;;;;;;;;4933920;28;20437;-63
2022/03/20 11:09:20;;;;;;;23.40;9.40;;;;;;;;;;4951987;28;20456;-62
2022/03/20 11:11:51;;;;;;;25.38;9.18;;;;;;;;;;4951180;28;20463;-62
2022/03/20 11:14:19;;;;;;;19.52;8.30;;;;;;;;;;4950985;28;20099;-63
2022/03/20 11:16:49;;;;;;;21.40;8.23;;;;;;;;;;4951172;28;20034;-62
2022/03/20 11:19:15;;;;;;;19.23;8.38;;;;;;;;;;4950960;28;20533;-62
2022/03/20 11:21:44;;;;;;;20.95;8.60;;;;;;;;;;4951013;28;20526;-63
2022/03/20 11:24:10;;;;;;;18.48;7.93;;;;;;;;;;4951777;28;20415;-62
2022/03/20 11:26:39;;;;;;;16.52;7.60;;;;;;;;;;4933444;28;20419;-62
2022/03/20 11:29:07;;;;;;;18.38;8.07;;;;;;;;;;4951352;28;20397;-62
2022/03/20 11:31:36;;;;;;;16.83;8.43;;;;;;;;;;4951155;28;20365;-62
2022/03/20 11:34:06;;;;;;;19.40;7.78;;;;;;;;;;4933126;28;20018;-63
2022/03/20 11:36:33;;;;;;;21.65;8.45;;;;;;;;;;4932866;28;20362;-63
2022/03/20 11:39:09;;;;;;;17.35;6.97;;;;;;;;;;4950974;28;20564;-63
2022/03/20 11:41:35;;;;;;;15.55;7.28;;;;;;;;;;4933567;28;20287;-62
2022/03/20 11:44:20;;;;;;;16.50;7.18;;;;;;;;;;4949107;28;20389;-62
2022/03/20 11:47:29;;;;;;;14.80;7.18;;;;;;;;;;4950359;28;20467;-63
2022/03/20 11:50:16;;;;;;;15.25;7.38;;;;;;;;;;4890465;29;20427;-62
2022/03/20 11:52:59;;;;;;;14.25;6.63;;;;;;;;;;4890091;29;20047;-63
2022/03/20 11:55:35;;;;;;;12.38;5.97;;;;;;;;;;4918808;28;20369;-63
2022/03/20 11:58:02;;;;;;;20.33;7.43;;;;;;;;;;4951041;28;20598;-63
2022/03/20 12:00:33;;;;;;;13.90;6.25;;;;;;;;;;4950138;28;20464;-63
2022/03/20 12:03:13;;;;;;;15.15;6.95;;;;;;;;;;4950985;28;20437;-63
2022/03/20 12:05:49;;;;;;;15.52;6.50;;;;;;;;;;4950252;28;20433;-63
2022/03/20 12:08:53;;;;;;;11.48;5.88;;;;;;;;;;4932833;28;20095;-62
2022/03/20 12:11:42;;;;;;;14.98;6.20;;;;;;;;;;4950143;28;20065;-64
2022/03/20 12:14:30;;;;;;;15.38;7.05;;;;;;;;;;4932922;28;20345;-63
2022/03/20 12:16:58;;;;;;;16.27;6.97;;;;;;;;;;4950504;28;20485;-63
2022/03/20 12:19:35;;;;;;;15.63;6.70;;;;;;;;;;4951758;28;20048;-63
2022/03/20 12:22:03;;;;;;;12.32;6.45;;;;;;;;;;4950912;28;20372;-63
2022/03/20 12:24:34;;;;;;;13.40;6.45;;;;;;;;;;4949984;28;20473;-62
2022/03/20 12:27:22;;;;;;;14.07;6.30;;;;;;;;;;4950050;28;20349;-63
2022/03/20 12:29:48;;;;;;;15.50;6.88;;;;;;;;;;4940488;28;20128;-63
2022/03/20 12:32:15;;;;;;;15.63;6.32;;;;;;;;;;4949800;28;20457;-62
2022/03/20 12:35:05;;;;;;;14.68;6.45;;;;;;;;;;4950576;28;20052;-63
2022/03/20 12:37:33;;;;;;;14.80;6.60;;;;;;;;;;4949710;28;20334;-63
2022/03/20 12:40:34;;;;;;;15.77;7.90;;;;;;;;;;4949740;28;20421;-63
2022/03/20 12:43:13;;;;;;;21.40;8.30;;;;;;;;;;4950022;28;20457;-63
2022/03/20 12:45:40;;;;;;;18.35;8.05;;;;;;;;;;4949952;28;20365;-63
2022/03/20 12:48:08;;;;;;;18.27;7.93;;;;;;;;;;4951092;28;20327;-63
2022/03/20 12:50:38;;;;;;;19.45;8.27;;;;;;;;;;4949449;28;20121;-63
2022/03/20 12:53:17;;;;;;;18.00;7.63;;;;;;;;;;4949906;28;20038;-62
2022/03/20 12:55:59;;;;;;;22.15;8.18;;;;;;;;;;4949650;28;20068;-63
2022/03/20 12:58:25;;;;;;;15.32;7.10;;;;;;;;;;4943445;28;20480;-62
2022/03/20 13:00:53;;;;;;;13.85;7.25;;;;;;;;;;4949689;28;20465;-63
2022/03/20 13:03:19;;;;;;;24.08;9.20;;;;;;;;;;4949681;28;20329;-63
2022/03/20 13:05:44;;;;;;;23.13;8.68;;;;;;;;;;4932156;28;20322;-62
2022/03/20 13:08:10;;;;;;;24.23;9.52;;;;;;;;;;4950915;28;20409;-63
2022/03/20 13:10:37;;;;;;;20.45;7.05;;;;;;;;;;4950355;28;20535;-62
2022/03/20 13:13:04;;;;;;;20.08;8.00;;;;;;;;;;4951611;28;20052;-63
2022/03/20 13:15:38;;;;;;;19.80;7.22;;;;;;;;;;4953731;28;20088;-62
2022/03/20 13:18:05;;;;;;;18.23;7.50;;;;;;;;;;4953198;28;20516;-62
2022/03/20 13:20:36;;;;;;;20.08;8.18;;;;;;;;;;4954112;28;20422;-62
2022/03/20 13:23:10;;;;;;;19.23;7.20;;;;;;;;;;4953557;28;20048;-63
2022/03/20 13:25:44;;;;;;;16.92;7.10;;;;;;;;;;4953499;28;20061;-63
2022/03/20 13:28:29;;;;;;;26.25;15.68;;;;;;;;;;4952242;28;20025;-63
2022/03/20 13:30:56;;;;;;;25.67;11.82;;;;;;;;;;4953555;28;20444;-62
2022/03/20 13:33:40;;;;;;;19.80;7.30;;;;;;;;;;4952949;28;20168;-63
2022/03/20 13:36:08;;;;;;;19.90;8.20;;;;;;;;;;4952868;28;20465;-62
2022/03/20 13:38:45;;;;;;;13.75;6.00;;;;;;;;;;4952924;28;20052;-62
2022/03/20 13:41:20;;;;;;;19.40;6.78;;;;;;;;;;4953796;28;20501;-62
2022/03/20 13:43:46;;;;;;;20.60;6.82;;;;;;;;;;4936429;28;20030;-62
2022/03/20 13:46:16;;;;;;;15.73;7.50;;;;;;;;;;4952771;28;20029;-62
2022/03/20 13:48:42;;;;;;;23.55;8.05;;;;;;;;;;4952895;28;20480;-62
2022/03/20 13:51:08;;;;;;;18.77;7.97;;;;;;;;;;4953271;28;20440;-62
2022/03/20 13:53:33;;;;;;;19.23;6.55;;;;;;;;;;4952913;28;20425;-63
2022/03/20 13:55:59;;;;;;;15.98;6.50;;;;;;;;;;4952851;28;20342;-62
2022/03/20 13:58:24;;;;;;;18.13;7.35;;;;;;;;;;4953018;28;20438;-62
2022/03/20 14:00:59;;;;;;;14.55;6.38;;;;;;;;;;4952716;28;20026;-63
2022/03/20 14:03:27;;;;;;;20.27;6.93;;;;;;;;;;4952714;28;20544;-63
2022/03/20 14:05:54;;;;;;;15.77;6.32;;;;;;;;;;4952606;28;20453;-62
2022/03/20 14:08:21;;;;;;;17.05;6.35;;;;;;;;;;4952710;28;20580;-62
2022/03/20 14:10:48;;;;;;;19.92;7.22;;;;;;;;;;4952406;28;20412;-64
2022/03/20 14:13:21;;;;;;;14.10;6.88;;;;;;;;;;4953210;28;20444;-62
2022/03/20 14:16:07;;;;;;;15.38;6.30;;;;;;;;;;4952898;28;20349;-62
2022/03/20 14:18:34;;;;;;;15.00;6.30;;;;;;;;;;4952593;28;20404;-63
2022/03/20 14:21:13;;;;;;;16.65;5.97;;;;;;;;;;4952062;28;20445;-63
2022/03/20 14:24:06;;;;;;;16.02;6.05;;;;;;;;;;4952007;28;20046;-62
2022/03/20 14:26:36;;;;;;;17.55;6.88;;;;;;;;;;4952455;28;20400;-62
2022/03/20 14:29:13;;;;;;;11.40;6.28;;;;;;;;;;4952519;28;20053;-63
2022/03/20 14:40:11;;;;;;;13.43;5.25;;;;;;;;;;4952447;28;20418;-62
2022/03/20 14:42:37;;;;;;;;;;;;;;;;;;4952795;28;20451;-64
2022/03/20 14:45:04;;;;;;;13.73;5.30;;;;;;;;;;4952160;28;20352;-63
2022/03/20 14:47:30;;;;;;;7.95;4.68;;;;;;;;;;4953104;28;20377;-62
2022/03/20 14:49:56;;;;;;;17.13;5.35;;;;;;;;;;4951550;28;20065;-62
2022/03/20 14:52:23;;;;;;;12.95;5.25;;;;;;;;;;4951402;28;20322;-62
2022/03/20 14:54:48;;;;;;;11.18;4.43;;;;;;;;;;4952715;28;20476;-62
2022/03/20 14:57:14;;;;;;;12.45;5.55;;;;;;;;;;4952562;28;20455;-62
2022/03/20 14:59:41;;;;;;;11.40;4.93;;;;;;;;;;4934774;28;20041;-62
2022/03/20 15:02:06;;;;;;;10.38;4.57;;;;;;;;;;4952122;28;20445;-62
2022/03/20 15:04:35;;;;;;;10.13;4.53;;;;;;;;;;4951386;28;20486;-63
2022/03/20 15:07:01;;;;;;;15.20;5.00;;;;;;;;;;4951533;28;20384;-62